createdAt,value
2019-02-20T00:04:26.023Z,5.54
2019-02-20T00:09:31.787Z,5.54
2019-02-20T00:14:35.853Z,5.46
2019-02-20T00:19:39.961Z,5.48
2019-02-20T00:35:39.929Z,5.54
2019-02-20T00:40:44.075Z,5.66
2019-02-20T00:46:07.084Z,5.67
2019-02-20T00:51:11.170Z,5.65
2019-02-20T00:56:16.941Z,5.68
2019-02-20T01:01:21.040Z,5.80
2019-02-20T01:06:25.127Z,5.78
2019-02-20T01:11:30.899Z,5.78
2019-02-20T01:16:53.959Z,5.93
2019-02-20T01:22:18.679Z,5.94
2019-02-20T01:27:22.862Z,5.93
2019-02-20T01:32:46.448Z,5.93
2019-02-20T01:37:52.225Z,5.94
2019-02-20T01:42:56.310Z,5.97
2019-02-20T01:48:02.080Z,5.79
2019-02-20T01:53:25.096Z,5.82
2019-02-20T01:58:49.980Z,6.02
2019-02-20T02:04:13.148Z,6.04
2019-02-20T02:14:32.697Z,6.13
2019-02-20T02:19:38.476Z,6.12
2019-02-20T02:24:44.291Z,6.14
2019-02-20T02:30:09.044Z,6.20
2019-02-20T02:35:32.131Z,6.34
2019-02-20T02:40:47.463Z,6.32
2019-02-20T02:45:51.965Z,6.36
2019-02-20T02:50:56.050Z,6.32
2019-02-20T02:56:00.161Z,6.30
2019-02-20T03:01:04.207Z,6.09
2019-02-20T03:06:09.976Z,5.92
2019-02-20T03:11:33.046Z,5.88
2019-02-20T03:16:37.176Z,5.81
2019-02-20T03:21:41.326Z,5.60
2019-02-20T03:26:47.138Z,5.56
2019-02-20T03:32:11.900Z,5.52
2019-02-20T03:37:16.007Z,5.30
2019-02-20T03:42:20.111Z,5.32
2019-02-20T03:47:44.857Z,5.28
2019-02-20T03:52:48.891Z,5.59
2019-02-20T03:57:54.693Z,5.70
2019-02-20T04:02:58.743Z,5.85
2019-02-20T04:08:02.824Z,5.86
2019-02-20T04:18:23.119Z,6.22
2019-02-20T04:28:47.627Z,6.22
2019-02-20T04:39:07.309Z,6.22
2019-02-20T04:44:11.409Z,6.15
2019-02-20T04:49:17.194Z,6.06
2019-02-20T04:59:37.147Z,6.15
2019-02-20T05:04:42.947Z,6.11
2019-02-20T05:09:49.354Z,6.17
2019-02-20T05:14:53.934Z,6.07
2019-02-20T05:19:58.118Z,6.22
2019-02-20T05:25:04.541Z,6.12
2019-02-20T05:30:13.854Z,6.08
2019-02-20T05:35:17.886Z,6.09
2019-02-20T05:40:24.068Z,5.97
2019-02-20T05:45:28.150Z,5.93
2019-02-20T05:50:32.180Z,5.95
2019-02-20T05:55:36.221Z,5.88
2019-02-20T06:00:41.067Z,5.89
2019-02-20T06:05:45.165Z,6.01
2019-02-20T06:10:49.242Z,5.86
2019-02-20T06:16:12.355Z,5.78
2019-02-20T06:21:16.569Z,5.76
2019-02-20T06:31:37.217Z,5.87
2019-02-20T06:36:41.288Z,6.05
2019-02-20T06:41:45.302Z,6.20
2019-02-20T06:46:49.571Z,6.14
2019-02-20T06:51:54.016Z,6.20
2019-02-20T06:57:03.477Z,6.39
2019-02-20T07:07:58.606Z,6.43
2019-02-20T07:13:24.770Z,6.41
2019-02-20T07:19:00.159Z,6.22
2019-02-20T07:24:42.319Z,6.28
2019-02-20T07:35:40.480Z,6.36
2019-02-20T07:40:44.578Z,6.40
2019-02-20T07:45:49.273Z,6.47
2019-02-20T07:51:03.859Z,6.34
2019-02-20T07:56:24.055Z,6.19
2019-02-20T08:01:28.145Z,6.21
2019-02-20T08:06:32.385Z,6.58
2019-02-20T08:11:36.459Z,6.98
2019-02-20T08:16:40.474Z,7.33
2019-02-20T08:21:44.871Z,7.60
2019-02-20T08:26:48.971Z,7.80
2019-02-20T08:31:53.948Z,8.09
2019-02-20T08:37:04.362Z,8.24
2019-02-20T08:42:08.512Z,8.33
2019-02-20T08:47:12.614Z,8.00
2019-02-20T08:52:17.149Z,7.95
2019-02-20T08:57:21.232Z,7.87
2019-02-20T09:02:25.361Z,8.01
2019-02-20T09:07:29.524Z,8.02
2019-02-20T09:12:33.675Z,7.96
2019-02-20T09:17:37.661Z,7.99
2019-02-20T09:22:41.725Z,7.98
2019-02-20T09:33:22.106Z,8.49
2019-02-20T09:38:26.160Z,8.81
2019-02-20T09:43:30.575Z,8.71
2019-02-20T09:48:34.944Z,9.21
2019-02-20T09:53:39.367Z,9.21
2019-02-20T09:58:43.407Z,9.44
2019-02-20T10:03:47.551Z,9.51
2019-02-20T10:08:51.614Z,9.62
2019-02-20T10:13:55.698Z,9.56
2019-02-20T10:19:00.069Z,9.71
2019-02-20T10:24:04.462Z,10.27
2019-02-20T10:29:08.564Z,10.15
2019-02-20T10:34:12.645Z,10.48
2019-02-20T10:39:16.890Z,10.28
2019-02-20T10:44:21.000Z,11.29
2019-02-20T10:49:25.387Z,10.98
2019-02-20T10:54:29.771Z,10.78
2019-02-20T10:59:33.865Z,11.88
2019-02-20T11:04:38.257Z,12.25
2019-02-20T11:09:42.326Z,11.91
2019-02-20T11:14:46.524Z,11.82
2019-02-20T11:19:50.604Z,11.99
2019-02-20T11:24:55.008Z,12.06
2019-02-20T11:29:59.822Z,11.97
2019-02-20T11:35:04.145Z,12.07
2019-02-20T11:40:08.923Z,12.14
2019-02-20T11:45:13.122Z,12.41
2019-02-20T11:50:20.076Z,12.31
2019-02-20T11:55:24.519Z,12.82
2019-02-20T12:00:29.003Z,12.73
2019-02-20T12:05:33.243Z,12.80
2019-02-20T12:10:37.598Z,12.60
2019-02-20T12:15:42.021Z,12.57
2019-02-20T12:20:46.173Z,12.91
2019-02-20T12:25:50.294Z,11.40
2019-02-20T12:30:56.410Z,11.24
2019-02-20T12:36:00.711Z,11.95
2019-02-20T12:41:05.332Z,12.09
2019-02-20T12:46:09.459Z,12.44
2019-02-20T12:51:13.577Z,12.51
2019-02-20T12:56:17.749Z,12.80
2019-02-20T13:01:21.875Z,12.86
2019-02-20T13:06:26.039Z,13.46
2019-02-20T13:11:30.229Z,13.17
2019-02-20T13:16:34.277Z,12.59
2019-02-20T13:21:38.412Z,12.33
2019-02-20T13:26:42.489Z,11.93
2019-02-20T13:31:46.550Z,12.12
2019-02-20T13:36:50.674Z,11.56
2019-02-20T13:41:54.818Z,11.46
2019-02-20T13:46:58.864Z,11.52
2019-02-20T13:52:03.917Z,11.51
2019-02-20T13:57:07.968Z,11.33
2019-02-20T14:02:12.314Z,11.49
2019-02-20T14:07:16.462Z,11.47
2019-02-20T14:12:20.585Z,11.74
2019-02-20T14:17:26.902Z,11.59
2019-02-20T14:22:30.468Z,11.58
2019-02-20T14:27:34.900Z,11.22
2019-02-20T14:32:38.994Z,10.95
2019-02-20T14:37:43.087Z,11.08
2019-02-20T14:42:47.273Z,10.91
2019-02-20T14:47:51.547Z,10.84
2019-02-20T14:52:55.796Z,10.63
2019-02-20T14:57:59.835Z,10.62
2019-02-20T15:03:05.635Z,10.53
2019-02-20T15:08:09.890Z,10.50
2019-02-20T15:13:14.022Z,10.50
2019-02-20T15:18:18.617Z,10.52
2019-02-20T15:23:22.701Z,10.34
2019-02-20T15:28:27.446Z,10.36
2019-02-20T15:33:31.595Z,10.34
2019-02-20T15:38:35.646Z,10.23
2019-02-20T15:49:14.627Z,10.12
2019-02-20T16:00:20.990Z,9.92
2019-02-20T16:05:46.078Z,9.84
2019-02-20T16:10:50.136Z,9.75
2019-02-20T16:16:03.232Z,9.58
2019-02-20T16:21:10.736Z,9.51
2019-02-20T16:26:17.295Z,9.34
2019-02-20T16:31:24.090Z,9.20
2019-02-20T16:36:32.480Z,9.05
2019-02-20T16:41:40.087Z,8.90
2019-02-20T16:46:48.621Z,8.90
2019-02-20T16:51:58.486Z,8.82
2019-02-20T16:57:04.582Z,8.73
2019-02-20T17:02:11.511Z,8.42
2019-02-20T17:07:16.793Z,8.22
2019-02-20T17:12:21.368Z,8.14
2019-02-20T17:17:25.985Z,8.04
2019-02-20T17:22:32.052Z,8.06
2019-02-20T17:27:36.136Z,7.94
2019-02-20T17:32:40.481Z,7.96
2019-02-20T17:37:44.995Z,7.71
2019-02-20T17:42:51.869Z,7.71
2019-02-20T17:47:56.073Z,7.67
2019-02-20T17:53:00.345Z,7.68
2019-02-20T17:58:04.429Z,7.66
2019-02-20T18:03:08.574Z,7.58
2019-02-20T18:08:12.645Z,7.48
2019-02-20T18:13:16.965Z,7.43
2019-02-20T18:18:21.438Z,7.41
2019-02-20T18:23:25.507Z,7.44
2019-02-20T18:28:30.019Z,7.53
2019-02-20T18:33:35.573Z,7.56
2019-02-20T18:38:40.067Z,7.56
2019-02-20T18:43:44.359Z,7.65
2019-02-20T18:48:48.449Z,7.64
2019-02-20T18:53:52.739Z,7.58
2019-02-20T18:58:56.872Z,7.54
2019-02-20T19:04:00.959Z,7.64
2019-02-20T19:09:20.726Z,7.41
2019-02-20T19:14:50.623Z,7.36
2019-02-20T19:20:41.645Z,7.26
2019-02-20T19:26:36.218Z,7.26
2019-02-20T19:32:35.095Z,7.31
2019-02-20T19:38:22.345Z,7.28
2019-02-20T19:44:01.311Z,7.24
2019-02-20T19:49:30.872Z,7.24
2019-02-20T19:54:43.038Z,7.26
2019-02-20T20:00:03.753Z,7.31
2019-02-20T20:06:12.735Z,7.26
2019-02-20T20:12:05.652Z,7.10
2019-02-20T20:18:20.896Z,7.04
2019-02-20T20:24:06.625Z,6.97
2019-02-20T20:30:00.406Z,6.90
2019-02-20T20:35:46.022Z,6.87
2019-02-20T20:41:30.303Z,6.98
2019-02-20T20:47:21.044Z,6.95
2019-02-20T20:53:45.387Z,6.98
2019-02-20T20:59:21.427Z,7.01
2019-02-20T21:05:22.028Z,6.98
2019-02-20T21:11:15.386Z,6.82
2019-02-20T21:17:08.121Z,6.63
2019-02-20T21:22:53.250Z,6.62
2019-02-20T21:28:29.808Z,6.86
2019-02-20T21:34:26.481Z,6.94
2019-02-20T21:40:11.038Z,7.07
2019-02-20T21:45:57.690Z,7.10
2019-02-20T21:51:52.089Z,6.93
2019-02-20T21:57:20.795Z,6.90
2019-02-20T22:03:02.033Z,6.83
2019-02-20T22:08:34.671Z,6.83
2019-02-20T22:14:28.519Z,6.79
2019-02-20T22:20:12.785Z,6.54
2019-02-20T22:25:48.318Z,6.37
2019-02-20T22:31:38.164Z,6.21
2019-02-20T22:37:23.531Z,6.04
2019-02-20T22:43:13.552Z,5.98
2019-02-20T22:49:02.195Z,5.82
2019-02-20T22:54:38.623Z,5.57
2019-02-20T23:00:01.920Z,5.47
2019-02-20T23:05:38.895Z,5.44
2019-02-20T23:11:21.030Z,5.64
2019-02-20T23:16:25.179Z,5.63
2019-02-20T23:21:29.269Z,5.76
2019-02-20T23:26:33.365Z,5.83
2019-02-20T23:31:37.441Z,5.86
2019-02-20T23:36:41.527Z,5.99
2019-02-20T23:41:45.601Z,6.02
2019-02-20T23:46:49.687Z,6.16
2019-02-20T23:51:54.163Z,6.18
2019-02-20T23:56:58.225Z,6.16
